Time;durP1;ratioP1;P1;durP2;ratioP2;P2;SDS_P1;SDS_P2;PMS_P1;PMS_P2;Temp;Humidity;BMP_temperature;BMP_pressure;BME280_temperature;BME280_humidity;BME280_pressure;Samples;Min_cycle;Max_cycle;Signal;HPM_P1;HPM_P2
2023/03/20 00:00:51;;;;;;;14.70;8.17;;;0.40;87.70;;;;;;5039562;28;20013;-86
2023/03/20 00:03:17;;;;;;;13.38;7.40;;;0.50;87.80;;;;;;5028296;28;20299;-85
2023/03/20 00:05:43;;;;;;;12.45;6.90;;;0.40;87.70;;;;;;5016073;28;20105;-84
2023/03/20 00:08:09;;;;;;;14.50;8.63;;;0.50;87.90;;;;;;5013950;28;20029;-86
2023/03/20 00:10:41;;;;;;;10.80;7.85;;;0.50;87.90;;;;;;5028105;28;20026;-84
2023/03/20 00:13:17;;;;;;;14.60;7.18;;;0.50;87.90;;;;;;5024698;28;20026;-85
2023/03/20 00:15:44;;;;;;;15.15;9.85;;;0.50;87.50;;;;;;5021830;28;20028;-85
2023/03/20 00:18:19;;;;;;;13.15;7.80;;;0.40;87.40;;;;;;5045476;28;20034;-84
2023/03/20 00:20:46;;;;;;;16.10;8.90;;;0.40;88.00;;;;;;5029416;28;20072;-85
2023/03/20 00:23:12;;;;;;;19.08;8.90;;;0.40;88.20;;;;;;5031164;28;20126;-86
2023/03/20 00:25:39;;;;;;;14.82;9.38;;;0.40;88.30;;;;;;5025445;28;20052;-83
2023/03/20 00:28:39;;;;;;;12.80;8.23;;;0.40;88.40;;;;;;5018676;28;20029;-85
2023/03/20 00:31:33;;;;;;;16.13;9.05;;;0.40;88.40;;;;;;5028984;28;20033;-85
2023/03/20 00:34:02;;;;;;;15.95;9.65;;;0.30;88.30;;;;;;5036879;28;20084;-86
2023/03/20 00:36:28;;;;;;;14.45;8.60;;;0.40;88.40;;;;;;5028056;28;20086;-86
2023/03/20 00:38:58;;;;;;;14.65;8.15;;;0.30;88.30;;;;;;5045438;28;20030;-84
2023/03/20 00:41:31;;;;;;;14.13;9.05;;;0.30;88.50;;;;;;5018407;28;20391;-87
2023/03/20 00:44:03;;;;;;;16.75;8.75;;;0.20;88.70;;;;;;5037269;28;20480;-85
2023/03/20 00:46:33;;;;;;;16.13;8.93;;;0.20;89.10;;;;;;5015512;28;20026;-85
2023/03/20 00:49:00;;;;;;;17.60;9.80;;;0.20;89.30;;;;;;5018897;28;20014;-87
2023/03/20 00:51:26;;;;;;;14.52;8.55;;;0.20;89.30;;;;;;5021664;28;20041;-86
2023/03/20 00:53:52;;;;;;;15.52;8.63;;;0.20;89.30;;;;;;5033184;28;20153;-85
2023/03/20 00:56:38;;;;;;;12.68;7.95;;;0.20;89.60;;;;;;5015500;28;20510;-86
2023/03/20 00:59:05;;;;;;;18.08;8.95;;;0.10;89.70;;;;;;5016964;28;20125;-85
2023/03/20 01:01:31;;;;;;;16.23;8.90;;;0.10;89.60;;;;;;5017004;28;20026;-85
2023/03/20 01:03:58;;;;;;;17.10;9.02;;;0.10;89.70;;;;;;5032332;28;20419;-86
2023/03/20 01:06:24;;;;;;;14.48;9.15;;;0.10;89.80;;;;;;5033425;28;20480;-84
2023/03/20 01:08:50;;;;;;;16.42;7.88;;;0.10;89.90;;;;;;5020634;28;20072;-86
2023/03/20 01:11:22;;;;;;;15.63;7.55;;;0.20;90.00;;;;;;5017355;28;20022;-86
2023/03/20 01:13:48;;;;;;;14.10;8.18;;;0.20;90.00;;;;;;5016704;28;20080;-86
2023/03/20 01:16:21;;;;;;;13.13;8.00;;;0.20;90.00;;;;;;5033192;28;20022;-86
2023/03/20 01:18:47;;;;;;;11.35;7.65;;;0.20;90.00;;;;;;5015984;28;20026;-86
2023/03/20 01:21:13;;;;;;;14.88;8.23;;;0.20;89.70;;;;;;5032616;28;20022;-85
2023/03/20 01:23:39;;;;;;;15.05;8.50;;;0.30;89.70;;;;;;5020123;28;20041;-85
2023/03/20 01:26:26;;;;;;;11.63;7.90;;;0.30;90.10;;;;;;5019477;28;20022;-85
2023/03/20 01:28:52;;;;;;;11.95;8.50;;;0.20;89.60;;;;;;5014032;28;20041;-84
2023/03/20 01:31:18;;;;;;;14.82;8.98;;;0.20;89.60;;;;;;5035744;28;20500;-85
2023/03/20 01:33:45;;;;;;;12.63;8.52;;;0.20;89.80;;;;;;5018763;28;20467;-85
2023/03/20 01:36:14;;;;;;;11.90;7.70;;;0.20;90.00;;;;;;5019006;28;20026;-86
2023/03/20 01:38:41;;;;;;;15.25;8.35;;;0.20;89.90;;;;;;5021340;28;20053;-85
2023/03/20 01:41:15;;;;;;;13.48;7.15;;;0.20;89.80;;;;;;5019005;28;20427;-84
2023/03/20 01:43:42;;;;;;;12.88;7.97;;;0.20;89.60;;;;;;5011342;28;20018;-85
2023/03/20 01:46:11;;;;;;;14.45;7.45;;;0.20;89.50;;;;;;5018093;28;20026;-85
2023/03/20 01:48:49;;;;;;;14.75;7.53;;;0.20;89.40;;;;;;5016786;28;20085;-83
2023/03/20 01:51:23;;;;;;;14.40;8.50;;;0.20;89.30;;;;;;5018802;28;20072;-84
2023/03/20 01:54:12;;;;;;;14.82;8.05;;;0.20;89.30;;;;;;5016692;28;20018;-85
2023/03/20 01:56:43;;;;;;;11.13;7.72;;;0.10;89.20;;;;;;5021995;28;20037;-86
2023/03/20 01:59:18;;;;;;;12.60;7.03;;;0.10;89.20;;;;;;5018757;28;20356;-84
2023/03/20 02:01:44;;;;;;;15.43;7.68;;;0.10;89.20;;;;;;5016453;28;20384;-86
2023/03/20 02:04:13;;;;;;;13.23;7.68;;;0.00;89.10;;;;;;5020853;28;20053;-86
2023/03/20 02:06:40;;;;;;;12.85;8.23;;;0.00;89.20;;;;;;5017824;28;20113;-85
2023/03/20 02:09:07;;;;;;;15.82;7.88;;;-0.10;89.40;;;;;;5022878;28;20010;-86
2023/03/20 02:11:35;;;;;;;9.85;7.32;;;-0.10;89.50;;;;;;5030042;28;20026;-85
2023/03/20 02:14:01;;;;;;;11.15;7.65;;;-0.10;89.60;;;;;;5032505;28;20006;-85
2023/03/20 02:16:27;;;;;;;12.48;8.25;;;-0.10;89.50;;;;;;5030908;28;20094;-86
2023/03/20 02:18:55;;;;;;;12.27;7.65;;;-0.20;89.50;;;;;;5018855;28;20031;-85
2023/03/20 02:22:00;;;;;;;16.40;9.35;;;-0.20;89.40;;;;;;5038937;28;20002;-85
2023/03/20 02:24:36;;;;;;;14.10;7.38;;;-0.20;89.60;;;;;;5035655;28;20029;-85
2023/03/20 02:27:30;;;;;;;15.13;8.75;;;-0.20;89.60;;;;;;5017342;28;20037;-87
2023/03/20 02:30:10;;;;;;;12.88;7.50;;;-0.20;89.80;;;;;;5032659;28;20022;-87
2023/03/20 02:33:06;;;;;;;12.18;7.40;;;-0.20;89.80;;;;;;5015863;28;20025;-84
2023/03/20 02:35:51;;;;;;;13.52;8.73;;;-0.20;89.80;;;;;;5013560;28;20513;-85
2023/03/20 02:38:44;;;;;;;15.57;7.97;;;-0.20;89.80;;;;;;5017713;28;20057;-84
2023/03/20 02:41:41;;;;;;;12.93;7.68;;;-0.20;89.60;;;;;;5014155;28;20034;-84
2023/03/20 02:44:22;;;;;;;14.68;8.82;;;-0.20;89.40;;;;;;4987315;28;20038;-87
2023/03/20 02:47:02;;;;;;;12.45;7.82;;;-0.20;89.10;;;;;;4999712;28;20038;-87
2023/03/20 02:49:46;;;;;;;10.05;6.88;;;-0.20;88.80;;;;;;5024451;28;20029;-89
2023/03/20 02:52:39;;;;;;;11.43;7.38;;;-0.10;88.60;;;;;;5018891;28;20458;-86
2023/03/20 02:55:43;;;;;;;12.93;8.27;;;-0.10;88.50;;;;;;5014126;28;20455;-85
2023/03/20 02:58:22;;;;;;;12.40;7.88;;;-0.10;88.60;;;;;;4990872;28;20060;-85
2023/03/20 03:01:02;;;;;;;14.93;7.88;;;-0.10;88.70;;;;;;5014376;28;20014;-85
2023/03/20 03:03:50;;;;;;;11.77;7.85;;;-0.10;89.30;;;;;;5031745;28;20064;-86
2023/03/20 03:06:25;;;;;;;14.43;7.72;;;-0.10;88.70;;;;;;5017649;28;20109;-86
2023/03/20 03:09:10;;;;;;;12.20;8.88;;;-0.10;88.50;;;;;;5015323;28;20115;-86
2023/03/20 03:11:42;;;;;;;14.90;9.02;;;-0.10;88.80;;;;;;5031759;28;20053;-86
2023/03/20 03:14:18;;;;;;;17.30;9.65;;;-0.10;88.80;;;;;;5018281;28;20019;-86
2023/03/20 03:16:47;;;;;;;14.38;9.32;;;-0.20;89.00;;;;;;5033262;28;20030;-86
2023/03/20 03:19:18;;;;;;;17.30;8.52;;;-0.20;89.10;;;;;;5013973;28;20036;-87
2023/03/20 03:21:46;;;;;;;12.57;7.43;;;-0.20;89.30;;;;;;5016393;28;20538;-87
2023/03/20 03:24:33;;;;;;;10.77;7.32;;;-0.20;89.40;;;;;;5015888;28;20639;-87
2023/03/20 03:27:02;;;;;;;;;;;-0.20;89.10;;;;;;5020996;28;20065;-85
2023/03/20 03:29:34;;;;;;;9.85;5.88;;;-0.10;88.70;;;;;;5017377;28;19952;-86
2023/03/20 03:32:02;;;;;;;10.98;5.80;;;-0.10;88.20;;;;;;5005934;28;20353;-84
2023/03/20 03:34:28;;;;;;;15.13;9.35;;;0.00;87.90;;;;;;5012017;28;20050;-87
2023/03/20 03:37:27;;;;;;;11.15;6.93;;;0.00;87.80;;;;;;5017312;28;20034;-86
2023/03/20 03:40:25;;;;;;;17.10;9.43;;;0.00;87.70;;;;;;5016782;28;20112;-87
2023/03/20 03:43:22;;;;;;;9.30;6.05;;;0.10;87.80;;;;;;5013713;28;20072;-84
2023/03/20 03:45:53;;;;;;;;;;;0.10;87.50;;;;;;5006187;28;20062;-86
2023/03/20 03:48:30;;;;;;;11.10;5.93;;;0.10;87.10;;;;;;5013327;28;19921;-86
2023/03/20 03:51:02;;;;;;;9.73;6.50;;;0.10;86.90;;;;;;5013734;28;20025;-85
2023/03/20 03:53:39;;;;;;;11.50;5.72;;;0.20;86.70;;;;;;5013398;28;20021;-86
2023/03/20 03:56:08;;;;;;;11.00;6.35;;;0.20;86.30;;;;;;5015969;28;20459;-83
2023/03/20 03:58:46;;;;;;;10.93;6.75;;;0.30;85.90;;;;;;5014994;28;20045;-86
2023/03/20 04:01:15;;;;;;;17.17;6.65;;;0.40;85.50;;;;;;5016527;28;20029;-86
2023/03/20 04:03:53;;;;;;;10.55;5.45;;;0.50;85.20;;;;;;5016528;28;20046;-87
2023/03/20 04:06:20;;;;;;;11.73;5.60;;;0.60;84.60;;;;;;5016826;28;20022;-87
2023/03/20 04:08:45;;;;;;;7.80;4.97;;;0.70;84.10;;;;;;5018946;28;20030;-88
2023/03/20 04:11:17;;;;;;;8.57;6.60;;;0.80;83.70;;;;;;5017476;28;20215;-88
2023/03/20 04:13:44;;;;;;;9.50;6.22;;;0.90;83.50;;;;;;5030203;28;20018;-84
2023/03/20 04:16:15;;;;;;;10.15;5.70;;;1.00;83.40;;;;;;5051301;28;20029;-87
2023/03/20 04:18:41;;;;;;;9.30;6.18;;;1.10;83.10;;;;;;5040422;28;20109;-86
2023/03/20 04:21:08;;;;;;;11.23;6.80;;;1.20;82.90;;;;;;5039895;28;20021;-86
2023/03/20 04:23:34;;;;;;;16.77;6.65;;;1.50;83.20;;;;;;5038126;28;20086;-86
2023/03/20 04:26:01;;;;;;;9.82;6.43;;;1.80;82.60;;;;;;5025040;28;20026;-86
2023/03/20 04:28:27;;;;;;;11.45;8.70;;;1.90;81.50;;;;;;5023135;28;20106;-88
2023/03/20 04:30:58;;;;;;;15.40;9.20;;;2.00;80.80;;;;;;5023121;28;20037;-88
2023/03/20 04:33:26;;;;;;;15.18;9.30;;;2.10;81.10;;;;;;5023653;28;20490;-88
2023/03/20 04:35:52;;;;;;;21.00;9.38;;;2.10;80.50;;;;;;5020590;28;20049;-84
2023/03/20 04:38:19;;;;;;;13.93;9.43;;;2.20;80.70;;;;;;5023292;28;20133;-88
2023/03/20 04:40:46;;;;;;;13.32;7.97;;;2.20;80.40;;;;;;5032348;28;20025;-88
2023/03/20 04:43:13;;;;;;;14.80;7.40;;;2.20;79.80;;;;;;5036610;28;20030;-88
2023/03/20 04:45:39;;;;;;;16.67;8.75;;;2.20;79.50;;;;;;5038060;28;20026;-87
2023/03/20 04:48:07;;;;;;;16.60;9.25;;;2.30;79.30;;;;;;5031616;28;20026;-87
2023/03/20 04:50:34;;;;;;;14.60;7.85;;;2.40;79.30;;;;;;5049772;28;20040;-88
2023/03/20 04:53:01;;;;;;;11.93;8.93;;;2.40;78.90;;;;;;5042173;28;20010;-88
2023/03/20 04:55:27;;;;;;;15.23;7.65;;;2.50;78.80;;;;;;5040052;28;20022;-85
2023/03/20 04:57:53;;;;;;;13.55;7.70;;;2.60;78.10;;;;;;5038266;28;20061;-86
2023/03/20 05:00:19;;;;;;;14.38;8.30;;;2.70;77.10;;;;;;5023797;28;20033;-87
2023/03/20 05:02:45;;;;;;;13.25;6.85;;;2.80;76.40;;;;;;5033947;28;20034;-84
2023/03/20 05:05:11;;;;;;;11.25;7.60;;;3.10;75.50;;;;;;5030698;28;20024;-85
2023/03/20 05:07:36;;;;;;;15.27;7.35;;;3.20;74.60;;;;;;5028372;28;20022;-86
2023/03/20 05:10:04;;;;;;;12.98;6.30;;;3.30;73.70;;;;;;5028697;28;20483;-86
2023/03/20 05:12:30;;;;;;;10.82;6.15;;;3.40;72.80;;;;;;5036564;28;20367;-84
2023/03/20 05:14:56;;;;;;;11.55;6.28;;;3.40;71.70;;;;;;5017294;28;20018;-85
2023/03/20 05:17:23;;;;;;;9.15;5.40;;;3.40;70.90;;;;;;5036037;28;20042;-85
2023/03/20 05:19:49;;;;;;;14.52;6.47;;;3.40;69.80;;;;;;5017831;28;20018;-84
2023/03/20 05:22:18;;;;;;;12.75;5.50;;;3.50;69.80;;;;;;5018112;28;20030;-86
2023/03/20 05:24:44;;;;;;;12.18;4.60;;;3.50;68.90;;;;;;5017342;28;20088;-88
2023/03/20 05:27:10;;;;;;;14.27;6.53;;;3.60;68.00;;;;;;5018032;28;20475;-86
2023/03/20 05:29:36;;;;;;;12.35;6.38;;;3.60;67.50;;;;;;5016822;28;20018;-88
2023/03/20 05:32:03;;;;;;;9.60;5.10;;;3.70;66.80;;;;;;5022470;28;20257;-88
2023/03/20 05:34:29;;;;;;;13.90;5.70;;;3.80;66.60;;;;;;5022604;28;20017;-88
2023/03/20 05:36:55;;;;;;;8.20;5.18;;;3.80;65.80;;;;;;5038928;28;20064;-89
2023/03/20 05:39:21;;;;;;;9.15;5.45;;;3.90;64.40;;;;;;5019100;28;20026;-90
2023/03/20 05:41:48;;;;;;;7.65;4.35;;;4.00;63.90;;;;;;5013304;28;20030;-90
2023/03/20 05:44:14;;;;;;;11.82;4.70;;;4.10;62.80;;;;;;5034566;28;20022;-90
2023/03/20 05:46:42;;;;;;;13.10;5.40;;;4.30;62.40;;;;;;5027314;28;20098;-91
2023/03/20 05:49:08;;;;;;;11.52;6.18;;;4.40;61.80;;;;;;5027904;28;20053;-90
2023/03/20 05:51:34;;;;;;;13.65;5.65;;;4.60;61.60;;;;;;5036028;28;20017;-90
2023/03/20 05:54:00;;;;;;;14.02;5.55;;;4.80;60.80;;;;;;5028705;28;20036;-90
2023/03/20 05:56:26;;;;;;;8.75;4.85;;;4.90;59.70;;;;;;5033805;28;20057;-87
2023/03/20 05:58:51;;;;;;;10.45;5.47;;;5.00;58.70;;;;;;5025106;28;20022;-88
2023/03/20 06:01:20;;;;;;;13.30;4.95;;;5.20;58.20;;;;;;5024049;28;20038;-89
2023/03/20 06:03:47;;;;;;;10.88;5.38;;;5.30;57.60;;;;;;5023383;28;20108;-88
2023/03/20 06:06:14;;;;;;;17.73;6.50;;;5.30;57.10;;;;;;5023141;28;20026;-88
2023/03/20 06:08:40;;;;;;;12.55;5.63;;;5.50;56.90;;;;;;5023058;28;20065;-87
2023/03/20 06:11:06;;;;;;;10.73;5.65;;;5.50;56.30;;;;;;5020668;28;20052;-88
2023/03/20 06:13:32;;;;;;;7.93;5.00;;;5.30;55.40;;;;;;5018392;28;20476;-87
2023/03/20 06:15:58;;;;;;;8.45;4.40;;;5.30;55.30;;;;;;5019788;28;20037;-88
2023/03/20 06:18:24;;;;;;;20.90;6.15;;;5.30;55.40;;;;;;5018097;28;20041;-86
2023/03/20 06:20:55;;;;;;;12.27;5.07;;;5.40;54.80;;;;;;5025234;28;20029;-88
2023/03/20 06:23:21;;;;;;;13.38;4.95;;;5.40;54.50;;;;;;5041192;28;20030;-88
2023/03/20 06:25:48;;;;;;;10.13;5.07;;;5.40;54.10;;;;;;5023992;28;20069;-89
2023/03/20 06:28:14;;;;;;;17.85;6.68;;;5.40;54.20;;;;;;5030960;28;20025;-88
2023/03/20 06:30:40;;;;;;;14.48;5.53;;;5.50;54.00;;;;;;5028458;28;20018;-88
2023/03/20 06:33:06;;;;;;;12.45;5.90;;;5.60;53.80;;;;;;5031947;28;20075;-87
2023/03/20 06:35:33;;;;;;;13.70;7.10;;;5.60;53.70;;;;;;5037366;28;20048;-83
2023/03/20 06:37:59;;;;;;;19.95;7.22;;;5.70;53.60;;;;;;5045821;28;20042;-86
2023/03/20 06:40:26;;;;;;;13.25;5.70;;;5.90;53.10;;;;;;5028567;28;20483;-84
2023/03/20 06:42:53;;;;;;;9.98;5.40;;;6.00;52.80;;;;;;5028253;28;20006;-86
2023/03/20 06:45:20;;;;;;;10.60;5.05;;;6.00;52.30;;;;;;5037568;28;20057;-87
2023/03/20 06:47:46;;;;;;;13.80;6.60;;;6.30;51.60;;;;;;5031373;28;20025;-87
2023/03/20 06:50:13;;;;;;;11.90;6.13;;;6.30;51.10;;;;;;5036822;28;20036;-88
2023/03/20 06:52:39;;;;;;;12.38;5.10;;;6.40;50.70;;;;;;5033479;28;20033;-88
2023/03/20 06:55:06;;;;;;;13.07;5.22;;;6.50;50.40;;;;;;5023280;28;20056;-88
2023/03/20 06:57:32;;;;;;;9.35;6.10;;;6.70;50.90;;;;;;5025570;28;20072;-85
2023/03/20 06:59:59;;;;;;;24.55;6.80;;;6.90;50.00;;;;;;5019862;28;20416;-89
2023/03/20 07:02:25;;;;;;;11.57;6.03;;;7.00;49.50;;;;;;5033526;28;20519;-89
2023/03/20 07:04:51;;;;;;;15.55;7.45;;;7.20;49.40;;;;;;5019781;28;20034;-87
2023/03/20 07:07:17;;;;;;;14.70;7.15;;;7.30;49.50;;;;;;5017585;28;20028;-86
2023/03/20 07:09:44;;;;;;;14.18;7.35;;;7.50;49.00;;;;;;5019483;28;20018;-88
2023/03/20 07:12:15;;;;;;;20.80;7.18;;;7.70;49.10;;;;;;5036156;28;20026;-86
2023/03/20 07:14:42;;;;;;;20.35;7.15;;;7.90;48.90;;;;;;5014004;28;20030;-86
2023/03/20 07:17:08;;;;;;;14.80;6.47;;;8.20;48.70;;;;;;5027591;28;20111;-85
2023/03/20 07:19:35;;;;;;;14.23;6.47;;;8.30;47.80;;;;;;5028614;28;20030;-86
2023/03/20 07:22:05;;;;;;;12.57;6.38;;;8.20;47.50;;;;;;5020604;28;20034;-87
2023/03/20 07:24:31;;;;;;;14.60;7.30;;;8.30;47.60;;;;;;5034980;28;20026;-87
2023/03/20 07:26:57;;;;;;;16.33;6.38;;;8.30;47.20;;;;;;5039344;28;20034;-86
2023/03/20 07:29:23;;;;;;;20.45;8.63;;;8.40;47.30;;;;;;5043857;28;20040;-86
2023/03/20 07:31:49;;;;;;;17.33;7.28;;;8.70;47.40;;;;;;5047966;28;20025;-89
2023/03/20 07:34:15;;;;;;;13.52;6.85;;;8.90;46.80;;;;;;5048926;28;20114;-89
2023/03/20 07:36:41;;;;;;;13.57;6.88;;;9.10;47.00;;;;;;5052346;28;20021;-87
2023/03/20 07:39:08;;;;;;;16.63;7.70;;;9.10;46.10;;;;;;5037288;28;20102;-85
2023/03/20 07:41:35;;;;;;;13.10;6.15;;;8.90;46.10;;;;;;5040947;28;20032;-86
2023/03/20 07:44:00;;;;;;;18.58;6.75;;;8.90;46.20;;;;;;5038039;28;20026;-87
2023/03/20 07:46:26;;;;;;;12.82;7.68;;;8.90;45.90;;;;;;5024951;28;20065;-88
2023/03/20 07:48:53;;;;;;;14.63;7.70;;;9.10;46.20;;;;;;5009856;28;20085;-88
2023/03/20 07:51:19;;;;;;;19.85;7.13;;;9.50;46.00;;;;;;5035155;28;20033;-88
2023/03/20 07:53:45;;;;;;;14.15;6.65;;;9.70;45.40;;;;;;5018424;28;20018;-88
2023/03/20 07:56:11;;;;;;;13.20;6.38;;;9.90;44.60;;;;;;5013553;28;20034;-86
2023/03/20 07:58:36;;;;;;;15.73;8.32;;;10.30;44.70;;;;;;5021219;28;20046;-87
2023/03/20 08:01:03;;;;;;;13.52;6.85;;;11.20;43.80;;;;;;5027602;28;20029;-87
2023/03/20 08:03:29;;;;;;;15.40;8.10;;;12.50;42.50;;;;;;5041741;28;20068;-86
2023/03/20 08:05:55;;;;;;;18.48;7.53;;;14.00;41.30;;;;;;5039574;28;20064;-88
2023/03/20 08:08:21;;;;;;;16.60;7.90;;;16.60;40.20;;;;;;5035723;28;20140;-86
2023/03/20 08:10:47;;;;;;;16.90;7.50;;;;;;;;;;5038576;28;20010;-85
2023/03/20 08:13:14;;;;;;;8.23;5.90;;;17.40;35.40;;;;;;5042342;28;20079;-85
2023/03/20 08:15:40;;;;;;;9.85;6.00;;;18.10;34.40;;;;;;5039375;28;20022;-87
2023/03/20 08:18:06;;;;;;;10.20;6.15;;;18.70;33.40;;;;;;5037111;28;20049;-88
2023/03/20 08:20:32;;;;;;;6.38;5.15;;;19.20;32.20;;;;;;5041242;28;20025;-87
2023/03/20 08:22:58;;;;;;;10.60;5.68;;;19.80;31.60;;;;;;5039350;28;20029;-90
2023/03/20 08:25:24;;;;;;;11.25;5.82;;;20.10;30.20;;;;;;5043971;28;20030;-89
2023/03/20 08:27:50;;;;;;;7.60;5.60;;;20.30;30.00;;;;;;5040603;28;20021;-86
2023/03/20 08:30:16;;;;;;;12.27;6.00;;;20.60;29.70;;;;;;5005268;28;20034;-88
2023/03/20 08:32:42;;;;;;;13.75;7.32;;;19.60;29.60;;;;;;5020979;28;20025;-87
2023/03/20 08:35:08;;;;;;;7.85;5.90;;;18.20;30.70;;;;;;5037165;28;20072;-87
2023/03/20 08:37:36;;;;;;;9.75;6.50;;;17.40;31.10;;;;;;5009360;28;20034;-90
2023/03/20 08:40:04;;;;;;;7.53;5.47;;;16.90;32.10;;;;;;5020262;28;20026;-87
2023/03/20 08:42:30;;;;;;;11.07;5.95;;;16.90;32.10;;;;;;5023727;28;20029;-89
2023/03/20 08:44:56;;;;;;;11.88;5.38;;;17.20;32.50;;;;;;5023133;28;20029;-89
2023/03/20 08:47:25;;;;;;;8.90;6.93;;;17.80;31.20;;;;;;5021912;28;20512;-88
2023/03/20 08:49:51;;;;;;;9.90;6.05;;;18.20;31.30;;;;;;5022052;28;20029;-90
2023/03/20 08:52:18;;;;;;;10.45;6.30;;;17.80;30.30;;;;;;5027715;28;20033;-88
2023/03/20 08:54:44;;;;;;;8.55;6.13;;;17.80;31.20;;;;;;5021171;28;20026;-89
2023/03/20 08:57:10;;;;;;;11.15;5.88;;;17.70;30.40;;;;;;5026063;28;20037;-87
2023/03/20 08:59:36;;;;;;;7.93;6.73;;;17.50;31.10;;;;;;5029052;28;20018;-86
2023/03/20 09:02:02;;;;;;;9.75;6.38;;;18.00;31.40;;;;;;5039714;28;20085;-86
2023/03/20 09:04:28;;;;;;;11.32;6.00;;;18.50;30.80;;;;;;5023924;28;20026;-87
2023/03/20 09:06:55;;;;;;;10.82;5.70;;;18.50;30.20;;;;;;5024459;28;20081;-86
2023/03/20 09:09:25;;;;;;;9.60;5.75;;;19.00;29.80;;;;;;5024657;28;20489;-87
2023/03/20 09:11:52;;;;;;;12.63;6.13;;;19.00;29.50;;;;;;5023837;28;20244;-87
2023/03/20 09:14:18;;;;;;;10.18;5.85;;;18.40;30.20;;;;;;5020602;28;20033;-88
2023/03/20 09:16:44;;;;;;;11.02;5.38;;;18.20;29.90;;;;;;5035750;28;20038;-90
2023/03/20 09:19:11;;;;;;;7.85;5.72;;;18.00;29.70;;;;;;5036962;28;20025;-88
2023/03/20 09:21:37;;;;;;;7.93;5.32;;;17.20;30.10;;;;;;5027209;28;20029;-89
2023/03/20 09:24:03;;;;;;;7.57;5.35;;;16.90;30.00;;;;;;5034668;28;20347;-88
2023/03/20 09:26:29;;;;;;;9.38;5.07;;;15.80;30.00;;;;;;5035468;28;20022;-84
2023/03/20 09:28:55;;;;;;;8.65;5.55;;;15.30;31.30;;;;;;5029123;28;20026;-84
2023/03/20 09:31:22;;;;;;;9.70;6.10;;;15.80;32.10;;;;;;5043266;28;20014;-84
2023/03/20 09:33:48;;;;;;;10.25;6.28;;;16.50;31.20;;;;;;5028122;28;20038;-85
2023/03/20 09:36:14;;;;;;;8.45;5.95;;;17.00;30.30;;;;;;5025276;28;20026;-87
2023/03/20 09:38:41;;;;;;;10.00;6.07;;;16.70;30.60;;;;;;5038255;28;20053;-86
2023/03/20 09:41:16;;;;;;;11.20;6.10;;;16.40;31.10;;;;;;5047249;28;20033;-87
2023/03/20 09:43:51;;;;;;;16.08;7.43;;;15.70;32.20;;;;;;5024604;28;20034;-84
2023/03/20 09:46:23;;;;;;;14.27;7.53;;;15.70;33.20;;;;;;5040981;28;20429;-86
2023/03/20 09:49:30;;;;;;;10.30;6.88;;;17.10;32.80;;;;;;5043549;28;20032;-87
2023/03/20 09:52:00;;;;;;;12.25;6.15;;;18.40;30.90;;;;;;5039422;28;20029;-83
2023/03/20 09:55:09;;;;;;;8.55;5.57;;;19.50;29.60;;;;;;5032011;28;20029;-85
2023/03/20 09:57:42;;;;;;;7.72;5.45;;;19.60;29.20;;;;;;5010243;28;20057;-86
2023/03/20 10:00:19;;;;;;;6.70;5.57;;;19.40;28.60;;;;;;5008143;28;20114;-84
2023/03/20 10:03:15;;;;;;;12.25;6.40;;;19.50;28.40;;;;;;5038820;28;20088;-85
2023/03/20 10:06:02;;;;;;;11.02;7.55;;;19.80;28.30;;;;;;5027674;28;20010;-84
2023/03/20 10:08:33;;;;;;;10.52;5.63;;;20.00;28.00;;;;;;5034520;28;20024;-84
2023/03/20 10:11:09;;;;;;;4.95;3.85;;;20.60;27.50;;;;;;5033479;28;20041;-87
2023/03/20 10:14:02;;;;;;;5.97;4.05;;;19.90;25.90;;;;;;5026872;28;20022;-88
2023/03/20 10:17:12;;;;;;;9.15;5.13;;;18.20;26.60;;;;;;5020007;28;20026;-88
2023/03/20 10:19:52;;;;;;;8.02;5.88;;;15.70;29.10;;;;;;5004682;28;20022;-85
2023/03/20 10:22:33;;;;;;;8.07;5.05;;;;;;;;;;4983058;28;20065;-86
2023/03/20 10:25:06;;;;;;;8.43;5.40;;;14.90;30.00;;;;;;4982320;28;20401;-88
2023/03/20 10:27:38;;;;;;;9.50;5.70;;;15.20;30.70;;;;;;5001024;28;20090;-83
2023/03/20 10:30:29;;;;;;;7.28;5.05;;;14.90;30.50;;;;;;5007509;28;20077;-85
2023/03/20 10:33:00;;;;;;;9.27;5.10;;;14.00;31.70;;;;;;5006697;28;20029;-87
2023/03/20 10:35:42;;;;;;;11.40;6.07;;;13.30;32.90;;;;;;4992479;28;20033;-90
2023/03/20 10:38:24;;;;;;;14.30;5.90;;;13.10;33.60;;;;;;4989688;28;20045;-86
2023/03/20 10:40:50;;;;;;;8.85;5.90;;;12.90;34.00;;;;;;5003935;28;20436;-87
2023/03/20 10:43:23;;;;;;;10.10;5.35;;;12.10;34.90;;;;;;4999754;28;20034;-86
2023/03/20 10:46:05;;;;;;;11.38;6.63;;;11.80;35.70;;;;;;4984029;28;20018;-85
2023/03/20 10:48:50;;;;;;;8.18;6.60;;;11.60;36.40;;;;;;4999190;28;20041;-86
2023/03/20 10:51:20;;;;;;;14.02;8.20;;;11.50;37.20;;;;;;5028101;28;20120;-87
2023/03/20 10:53:53;;;;;;;7.82;5.70;;;11.40;37.60;;;;;;5027117;28;20013;-86
2023/03/20 10:56:41;;;;;;;11.60;6.80;;;11.10;38.30;;;;;;5023090;28;20036;-86
2023/03/20 10:59:30;;;;;;;14.38;7.25;;;10.90;38.90;;;;;;5022054;28;20061;-85
2023/03/20 11:01:56;;;;;;;14.70;6.47;;;10.80;39.80;;;;;;5017810;28;20092;-88
2023/03/20 11:04:22;;;;;;;11.63;6.80;;;10.80;40.20;;;;;;5034821;28;20061;-84
2023/03/20 11:06:59;;;;;;;12.05;6.93;;;10.70;40.40;;;;;;5020538;28;20029;-85
2023/03/20 11:09:28;;;;;;;10.82;6.80;;;10.60;41.10;;;;;;5016508;28;20056;-84
2023/03/20 11:12:00;;;;;;;13.75;7.22;;;10.40;41.50;;;;;;5024029;28;20018;-88
2023/03/20 11:14:33;;;;;;;11.43;7.13;;;10.30;42.00;;;;;;5006324;28;20053;-88
2023/03/20 11:17:02;;;;;;;13.25;7.28;;;10.20;42.80;;;;;;5026518;28;20030;-86
2023/03/20 11:19:33;;;;;;;10.32;6.70;;;10.10;43.50;;;;;;5024473;28;20029;-86
2023/03/20 11:22:06;;;;;;;10.40;6.68;;;10.10;44.60;;;;;;5030134;28;20029;-84
2023/03/20 11:24:39;;;;;;;10.98;6.22;;;10.00;45.30;;;;;;5031204;28;20029;-85
2023/03/20 11:27:14;;;;;;;14.38;8.85;;;9.90;45.30;;;;;;5033991;28;20086;-85
2023/03/20 11:29:41;;;;;;;10.50;7.47;;;9.90;45.70;;;;;;5029647;28;20013;-89
2023/03/20 11:32:27;;;;;;;13.20;7.47;;;9.80;45.70;;;;;;5026945;28;20026;-88
2023/03/20 11:34:57;;;;;;;10.95;7.20;;;9.70;46.00;;;;;;5027942;28;20022;-90
2023/03/20 11:37:32;;;;;;;15.93;7.63;;;9.70;46.10;;;;;;5027093;28;20041;-87
2023/03/20 11:40:22;;;;;;;9.88;6.57;;;9.60;46.50;;;;;;5009341;28;20030;-83
2023/03/20 11:43:01;;;;;;;12.07;7.05;;;9.60;46.60;;;;;;5012859;28;20042;-84
2023/03/20 11:45:40;;;;;;;17.40;6.75;;;9.50;46.90;;;;;;5026051;28;20093;-86
2023/03/20 11:48:13;;;;;;;9.68;7.13;;;9.40;46.80;;;;;;5018084;28;20511;-87
2023/03/20 11:50:46;;;;;;;11.98;8.13;;;9.40;47.00;;;;;;5033797;28;20026;-87
2023/03/20 11:53:27;;;;;;;14.48;7.32;;;9.50;47.30;;;;;;5016447;28;20117;-83
2023/03/20 11:56:12;;;;;;;15.27;8.15;;;9.40;47.40;;;;;;5007448;28;20026;-85
2023/03/20 11:58:58;;;;;;;9.57;5.82;;;9.50;47.50;;;;;;5018105;28;20037;-83
2023/03/20 12:01:26;;;;;;;13.30;6.32;;;9.40;47.60;;;;;;5020304;28;20026;-85
2023/03/20 12:03:54;;;;;;;;;;;9.40;47.40;;;;;;5035669;28;20525;-87
2023/03/20 12:06:39;;;;;;;9.77;6.50;;;9.30;47.00;;;;;;5020093;28;19910;-84
2023/03/20 12:09:31;;;;;;;10.93;6.03;;;9.30;48.10;;;;;;5028608;28;20018;-85
2023/03/20 12:12:39;;;;;;;10.77;6.88;;;9.20;48.40;;;;;;5023717;28;20037;-84
2023/03/20 12:15:11;;;;;;;10.82;6.13;;;9.20;48.50;;;;;;5024887;28;20014;-86
2023/03/20 12:17:42;;;;;;;10.60;6.32;;;9.20;48.30;;;;;;5028606;28;20025;-85
2023/03/20 12:20:46;;;;;;;9.73;6.40;;;9.20;48.60;;;;;;5037767;28;20024;-84
2023/03/20 12:23:31;;;;;;;11.50;6.90;;;9.30;48.80;;;;;;5020804;28;20855;-85
2023/03/20 12:26:06;;;;;;;15.15;6.97;;;9.30;48.80;;;;;;5029174;28;20026;-82
2023/03/20 12:28:36;;;;;;;12.32;6.57;;;9.40;49.10;;;;;;5023274;28;20559;-84
2023/03/20 12:31:16;;;;;;;10.55;5.88;;;9.60;48.80;;;;;;5028317;28;20022;-84
2023/03/20 12:33:54;;;;;;;12.82;6.40;;;9.80;48.20;;;;;;5021534;28;20030;-81
2023/03/20 12:36:43;;;;;;;11.73;6.30;;;10.20;47.80;;;;;;5030144;28;20025;-84
2023/03/20 12:39:18;;;;;;;7.63;5.97;;;10.50;47.40;;;;;;5033998;28;20060;-84
2023/03/20 12:41:59;;;;;;;14.55;6.53;;;10.40;47.40;;;;;;5026226;28;20022;-84
2023/03/20 12:44:38;;;;;;;9.60;5.90;;;10.10;47.60;;;;;;5052751;28;20033;-81
2023/03/20 12:47:22;;;;;;;9.80;6.28;;;10.00;48.10;;;;;;5034586;28;20030;-85
2023/03/20 12:50:10;;;;;;;9.80;6.47;;;9.90;48.30;;;;;;5034299;28;20021;-84
2023/03/20 12:52:48;;;;;;;15.45;7.25;;;9.80;48.60;;;;;;5034912;28;20029;-84
2023/03/20 12:55:30;;;;;;;11.90;6.75;;;9.80;48.70;;;;;;5015353;28;20030;-83
2023/03/20 12:58:07;;;;;;;8.40;5.40;;;9.70;49.10;;;;;;5025804;28;20121;-83
2023/03/20 13:00:38;;;;;;;8.65;5.75;;;9.60;49.40;;;;;;5023545;28;20022;-86
2023/03/20 13:03:30;;;;;;;9.25;6.22;;;9.40;49.70;;;;;;5020773;28;20046;-83
2023/03/20 13:06:22;;;;;;;9.70;5.55;;;9.40;50.00;;;;;;5023185;28;20029;-83
2023/03/20 13:09:26;;;;;;;6.18;5.15;;;9.30;50.00;;;;;;5011283;28;20042;-84
2023/03/20 13:11:58;;;;;;;13.05;6.32;;;9.30;50.10;;;;;;5032211;28;20140;-83